createdAt,value
2018-05-03T00:01:56.028Z,99.90
2018-05-03T00:04:23.465Z,99.90
2018-05-03T00:06:50.900Z,99.90
2018-05-03T00:09:19.097Z,99.90
2018-05-03T00:11:46.542Z,99.90
2018-05-03T00:14:14.748Z,99.90
2018-05-03T00:16:42.180Z,99.90
2018-05-03T00:19:09.621Z,99.90
2018-05-03T00:21:37.820Z,99.90
2018-05-03T00:24:05.268Z,99.90
2018-05-03T00:26:32.712Z,99.90
2018-05-03T00:29:00.913Z,99.90
2018-05-03T00:31:28.348Z,99.90
2018-05-03T00:33:55.787Z,99.90
2018-05-03T00:36:24.001Z,99.90
2018-05-03T00:38:51.430Z,99.90
2018-05-03T00:41:19.629Z,99.90
2018-05-03T00:43:47.068Z,99.90
2018-05-03T00:46:14.500Z,99.90
2018-05-03T00:48:42.717Z,99.90
2018-05-03T00:51:10.159Z,99.90
2018-05-03T00:53:37.595Z,99.90
2018-05-03T00:56:05.799Z,99.90
2018-05-03T00:58:33.239Z,99.90
2018-05-03T01:01:00.668Z,99.90
2018-05-03T01:03:28.112Z,99.90
2018-05-03T01:05:55.545Z,99.90
2018-05-03T01:08:22.987Z,99.90
2018-05-03T01:10:50.419Z,99.90
2018-05-03T01:13:17.881Z,99.90
2018-05-03T01:15:45.308Z,99.90
2018-05-03T01:18:13.517Z,99.90
2018-05-03T01:20:40.956Z,99.90
2018-05-03T01:23:09.156Z,99.90
2018-05-03T01:25:36.589Z,99.90
2018-05-03T01:28:04.041Z,99.90
2018-05-03T01:30:32.241Z,99.90
2018-05-03T01:32:59.707Z,99.90
2018-05-03T01:35:39.044Z,99.90
2018-05-03T01:38:06.481Z,99.90
2018-05-03T01:40:33.917Z,99.90
2018-05-03T01:43:02.122Z,99.90
2018-05-03T01:45:29.557Z,99.90
2018-05-03T01:47:57.002Z,99.90
2018-05-03T01:50:25.202Z,99.90
2018-05-03T01:52:52.644Z,99.90
2018-05-03T01:55:20.083Z,99.90
2018-05-03T01:57:48.292Z,99.90
2018-05-03T02:00:15.729Z,99.90
2018-05-03T02:02:43.161Z,99.90
2018-05-03T02:05:11.376Z,99.90
2018-05-03T02:07:38.804Z,99.90
2018-05-03T02:10:07.007Z,99.90
2018-05-03T02:12:34.436Z,99.90
2018-05-03T02:15:02.653Z,99.90
2018-05-03T02:17:30.081Z,99.90
2018-05-03T02:19:57.525Z,99.90
2018-05-03T02:22:25.728Z,99.90
2018-05-03T02:24:53.171Z,99.90
2018-05-03T02:27:20.613Z,99.90
2018-05-03T02:29:48.064Z,99.90
2018-05-03T02:32:16.267Z,99.90
2018-05-03T02:34:43.710Z,99.90
2018-05-03T02:37:11.137Z,99.90
2018-05-03T02:39:39.346Z,99.90
2018-05-03T02:42:06.776Z,99.90
2018-05-03T02:44:34.976Z,99.90
2018-05-03T02:47:02.415Z,99.90
2018-05-03T02:49:30.873Z,99.90
2018-05-03T02:51:58.301Z,99.90
2018-05-03T02:54:25.744Z,99.90
2018-05-03T02:56:53.174Z,99.90
2018-05-03T02:59:32.485Z,99.90
2018-05-03T03:15:44.855Z,99.90
2018-05-03T03:21:38.728Z,99.90
2018-05-03T03:37:52.269Z,99.90
2018-05-03T03:40:31.465Z,99.90
2018-05-03T03:43:15.516Z,99.90
2018-05-03T03:45:42.969Z,99.90
2018-05-03T03:48:10.408Z,99.90
2018-05-03T03:50:37.857Z,99.90
2018-05-03T03:53:05.300Z,99.90
2018-05-03T03:55:33.510Z,99.90
2018-05-03T03:58:00.948Z,99.90
2018-05-03T04:00:28.413Z,99.90
2018-05-03T04:02:55.851Z,99.90
2018-05-03T04:05:24.153Z,99.90
2018-05-03T04:07:51.585Z,99.90
2018-05-03T04:10:19.784Z,99.90
2018-05-03T04:12:47.224Z,99.90
2018-05-03T04:15:14.672Z,99.90
2018-05-03T04:17:53.977Z,99.90
2018-05-03T04:20:40.050Z,99.90
2018-05-03T04:36:38.329Z,99.90
2018-05-03T04:39:05.762Z,99.90
2018-05-03T04:41:33.203Z,99.90
2018-05-03T04:44:00.644Z,99.90
2018-05-03T04:46:28.096Z,99.90
2018-05-03T04:48:55.533Z,99.90
2018-05-03T04:51:23.733Z,99.90
2018-05-03T04:53:51.186Z,99.90
2018-05-03T04:56:18.619Z,99.90
2018-05-03T04:58:46.829Z,99.90
2018-05-03T05:01:14.265Z,99.90
2018-05-03T05:03:41.700Z,99.90
2018-05-03T05:06:09.903Z,99.90
2018-05-03T05:08:37.353Z,99.90
2018-05-03T05:11:04.784Z,99.90
2018-05-03T05:13:32.289Z,99.90
2018-05-03T05:15:59.753Z,99.90
2018-05-03T05:18:27.215Z,99.90
2018-05-03T05:20:54.640Z,99.90
2018-05-03T05:23:22.092Z,99.90
2018-05-03T05:25:49.529Z,99.90
2018-05-03T05:28:17.743Z,99.90
2018-05-03T05:30:45.284Z,99.90
2018-05-03T05:33:12.651Z,99.90
2018-05-03T05:35:40.072Z,99.90
2018-05-03T05:38:08.295Z,99.90
2018-05-03T05:40:35.724Z,99.90
2018-05-03T05:43:03.165Z,99.90
2018-05-03T05:45:31.371Z,99.90
2018-05-03T05:47:58.812Z,99.90
2018-05-03T05:50:26.253Z,99.90
2018-05-03T05:52:54.461Z,99.90
2018-05-03T05:55:21.913Z,99.90
2018-05-03T05:57:49.364Z,99.90
2018-05-03T06:00:16.841Z,99.90
2018-05-03T06:02:44.284Z,99.90
2018-05-03T06:05:11.730Z,99.90
2018-05-03T06:07:39.157Z,99.90
2018-05-03T06:10:07.384Z,99.90
2018-05-03T06:12:34.816Z,99.90
2018-05-03T06:15:02.261Z,99.90
2018-05-03T06:17:29.712Z,99.90
2018-05-03T06:19:57.153Z,99.90
2018-05-03T06:22:25.349Z,99.90
2018-05-03T06:24:52.805Z,99.90
2018-05-03T06:27:20.241Z,99.90
2018-05-03T06:29:48.446Z,99.90
2018-05-03T06:32:15.917Z,99.90
2018-05-03T06:34:43.399Z,99.90
2018-05-03T06:37:10.840Z,99.90
2018-05-03T06:39:38.280Z,99.90
2018-05-03T06:42:05.703Z,99.90
2018-05-03T06:44:33.912Z,99.90
2018-05-03T06:47:01.350Z,99.90
2018-05-03T06:49:28.788Z,99.90
2018-05-03T06:51:56.984Z,99.90
2018-05-03T06:54:24.420Z,99.90
2018-05-03T06:56:52.628Z,99.90
2018-05-03T06:59:20.064Z,99.90
2018-05-03T07:01:47.497Z,99.90
2018-05-03T07:04:15.743Z,99.90
2018-05-03T07:06:43.136Z,99.90
2018-05-03T07:09:11.345Z,99.90
2018-05-03T07:11:38.794Z,99.90
2018-05-03T07:14:06.228Z,99.90
2018-05-03T07:16:34.437Z,99.90
2018-05-03T07:19:01.865Z,99.90
2018-05-03T07:21:29.302Z,99.90
2018-05-03T07:23:57.501Z,99.90
2018-05-03T07:26:24.944Z,99.90
2018-05-03T07:28:53.145Z,99.90
2018-05-03T07:31:20.583Z,99.90
2018-05-03T07:33:48.025Z,99.90
2018-05-03T07:36:16.236Z,99.90
2018-05-03T07:38:43.708Z,99.90
2018-05-03T07:41:11.148Z,99.90
2018-05-03T07:43:38.586Z,99.90
2018-05-03T07:46:06.030Z,99.90
2018-05-03T07:48:34.309Z,99.90
2018-05-03T07:51:01.666Z,99.90
2018-05-03T07:53:29.107Z,99.90
2018-05-03T07:55:57.316Z,99.90
2018-05-03T07:58:24.765Z,99.90
2018-05-03T08:00:52.204Z,99.90
2018-05-03T08:03:20.404Z,99.90
2018-05-03T08:05:47.848Z,99.90
2018-05-03T08:08:15.289Z,99.90
2018-05-03T08:10:43.501Z,99.90
2018-05-03T08:13:10.949Z,99.90
2018-05-03T08:15:38.405Z,99.90
2018-05-03T08:18:05.844Z,99.90
2018-05-03T08:20:33.288Z,99.90
2018-05-03T08:23:01.496Z,99.90
2018-05-03T08:25:28.952Z,99.90
2018-05-03T08:27:56.393Z,99.90
2018-05-03T08:30:23.858Z,99.90
2018-05-03T08:32:51.304Z,99.90
2018-05-03T08:35:18.771Z,99.90
2018-05-03T08:37:46.209Z,99.90
2018-05-03T08:40:14.400Z,99.90
2018-05-03T08:42:41.839Z,99.90
2018-05-03T08:45:09.291Z,99.90
2018-05-03T08:47:36.729Z,99.90
2018-05-03T08:50:04.928Z,99.90
2018-05-03T08:52:32.369Z,99.90
2018-05-03T08:55:00.574Z,99.90
2018-05-03T08:57:28.016Z,99.90
2018-05-03T08:59:55.461Z,99.90
2018-05-03T09:02:23.660Z,99.90
2018-05-03T09:04:51.103Z,99.90
2018-05-03T09:07:18.551Z,99.90
2018-05-03T09:09:46.030Z,99.90
2018-05-03T09:12:13.460Z,99.90
2018-05-03T09:14:40.892Z,99.90
2018-05-03T09:17:08.338Z,99.90
2018-05-03T09:19:35.771Z,99.90
2018-05-03T09:22:03.237Z,99.90
2018-05-03T09:24:30.676Z,99.90
2018-05-03T09:26:58.121Z,99.90
2018-05-03T09:29:25.557Z,99.90
2018-05-03T09:31:52.985Z,99.90
2018-05-03T09:34:20.432Z,99.90
2018-05-03T09:36:47.863Z,99.90
2018-05-03T09:39:15.306Z,99.90
2018-05-03T09:41:42.744Z,99.90
2018-05-03T09:44:11.111Z,99.90
2018-05-03T09:46:39.441Z,99.90
2018-05-03T09:49:06.861Z,99.90
2018-05-03T09:51:34.292Z,99.90
2018-05-03T09:54:02.504Z,99.90
2018-05-03T09:56:29.934Z,99.90
2018-05-03T09:58:57.372Z,99.90
2018-05-03T10:01:25.581Z,99.90
2018-05-03T10:03:53.708Z,99.90
2018-05-03T10:06:21.139Z,99.90
2018-05-03T10:08:48.586Z,99.90
2018-05-03T10:11:16.056Z,99.90
2018-05-03T10:13:43.501Z,99.90
2018-05-03T10:16:11.696Z,99.90
2018-05-03T10:18:39.141Z,99.90
2018-05-03T10:21:06.581Z,99.90
2018-05-03T10:23:34.033Z,99.90
2018-05-03T10:26:01.473Z,99.90
2018-05-03T10:28:28.916Z,99.90
2018-05-03T10:30:57.120Z,99.90
2018-05-03T10:33:24.563Z,99.90
2018-05-03T10:35:52.067Z,99.90
2018-05-03T10:38:19.440Z,99.90
2018-05-03T10:40:47.656Z,99.90
2018-05-03T10:43:15.099Z,99.90
2018-05-03T10:45:42.552Z,99.90
2018-05-03T10:48:09.990Z,99.90
2018-05-03T10:50:38.201Z,99.90
2018-05-03T10:53:05.639Z,99.90
2018-05-03T10:55:33.083Z,99.90
2018-05-03T10:58:00.557Z,99.90
2018-05-03T11:00:29.400Z,99.90
2018-05-03T11:02:56.840Z,99.90
2018-05-03T11:05:24.336Z,99.90
2018-05-03T11:07:51.730Z,99.90
2018-05-03T11:10:19.172Z,99.90
2018-05-03T11:15:37.268Z,99.90
2018-05-03T11:18:04.721Z,99.90
2018-05-03T11:20:32.156Z,99.90
2018-05-03T11:22:59.587Z,99.90
2018-05-03T11:25:27.028Z,99.90
2018-05-03T11:27:55.234Z,99.90
2018-05-03T11:30:22.673Z,99.90
2018-05-03T11:32:50.112Z,99.90
2018-05-03T11:35:18.320Z,99.90
2018-05-03T11:37:45.796Z,99.90
2018-05-03T11:40:13.233Z,99.90
2018-05-03T11:42:40.676Z,99.90
2018-05-03T11:45:08.162Z,99.90
2018-05-03T11:47:35.617Z,99.90
2018-05-03T11:50:03.052Z,99.90
2018-05-03T11:52:30.493Z,98.80
2018-05-03T11:54:57.937Z,99.00
2018-05-03T11:57:26.134Z,99.60
2018-05-03T11:59:53.565Z,99.60
2018-05-03T12:02:21.792Z,98.20
2018-05-03T12:04:49.201Z,98.20
2018-05-03T12:07:17.400Z,99.60
2018-05-03T12:09:44.838Z,99.60
2018-05-03T12:12:13.040Z,97.80
2018-05-03T12:14:40.471Z,97.70
2018-05-03T12:17:07.904Z,97.80
2018-05-03T12:19:36.099Z,98.50
2018-05-03T12:22:03.535Z,98.40
2018-05-03T12:24:31.737Z,98.00
2018-05-03T12:26:59.168Z,98.00
2018-05-03T12:29:27.369Z,98.80
2018-05-03T12:34:45.824Z,98.10
2018-05-03T12:37:13.209Z,97.90
2018-05-03T12:39:40.645Z,98.70
2018-05-03T12:42:08.085Z,98.30
2018-05-03T12:44:36.286Z,98.40
2018-05-03T12:47:03.721Z,98.40
2018-05-03T12:49:31.149Z,97.60
2018-05-03T12:51:58.584Z,97.70
2018-05-03T12:54:26.016Z,97.80
2018-05-03T12:56:53.464Z,97.60
2018-05-03T12:59:20.894Z,98.20
2018-05-03T13:01:49.097Z,97.40
2018-05-03T13:04:16.527Z,97.30
2018-05-03T13:06:43.966Z,97.50
2018-05-03T13:09:12.165Z,96.60
2018-05-03T13:11:39.646Z,96.60
2018-05-03T13:14:07.061Z,96.30
2018-05-03T13:16:35.261Z,96.00
2018-05-03T13:19:02.688Z,96.00
2018-05-03T13:21:31.013Z,96.40
2018-05-03T13:23:58.432Z,96.40
2018-05-03T13:26:25.865Z,98.90
2018-05-03T13:28:53.314Z,97.40
2018-05-03T13:31:20.747Z,97.20
2018-05-03T13:33:48.955Z,95.90
2018-05-03T13:36:16.392Z,95.90
2018-05-03T13:38:43.835Z,96.20
2018-05-03T13:41:11.286Z,96.40
2018-05-03T13:43:38.724Z,96.30
2018-05-03T13:46:06.159Z,98.10
2018-05-03T13:48:33.601Z,96.60
2018-05-03T13:51:01.801Z,96.30
2018-05-03T13:53:29.273Z,96.30
2018-05-03T13:55:57.440Z,95.90
2018-05-03T13:58:24.881Z,95.90
2018-05-03T14:00:52.337Z,96.40
2018-05-03T14:03:20.512Z,96.70
2018-05-03T14:05:47.953Z,96.70
2018-05-03T14:08:16.182Z,96.30
2018-05-03T14:10:43.621Z,96.30
2018-05-03T14:13:11.064Z,96.80
2018-05-03T14:15:38.500Z,96.20
2018-05-03T14:18:06.703Z,96.50
2018-05-03T14:20:34.140Z,96.50
2018-05-03T14:23:01.593Z,97.50
2018-05-03T14:25:29.037Z,97.20
2018-05-03T14:27:57.264Z,97.30
2018-05-03T14:30:24.705Z,97.30
2018-05-03T14:32:52.144Z,96.90
2018-05-03T14:35:19.580Z,97.00
2018-05-03T14:37:47.804Z,95.20
2018-05-03T14:40:15.232Z,95.10
2018-05-03T14:42:42.660Z,93.70
2018-05-03T14:48:03.729Z,94.40
2018-05-03T14:50:31.164Z,92.80
2018-05-03T14:52:58.597Z,93.40
2018-05-03T14:55:26.804Z,92.50
2018-05-03T14:57:54.242Z,92.50
2018-05-03T15:00:22.437Z,91.90
2018-05-03T15:02:49.867Z,91.90
2018-05-03T15:05:17.303Z,93.20
2018-05-03T15:07:45.500Z,93.60
2018-05-03T15:10:13.072Z,93.20
2018-05-03T15:12:40.517Z,92.40
2018-05-03T15:15:08.700Z,91.90
2018-05-03T15:17:36.150Z,91.90
2018-05-03T15:20:03.584Z,92.40
2018-05-03T15:22:31.785Z,90.70
2018-05-03T15:25:07.681Z,90.60
2018-05-03T15:27:35.111Z,92.40
2018-05-03T15:30:02.548Z,91.50
2018-05-03T15:32:29.976Z,91.30
2018-05-03T15:34:58.180Z,92.10
2018-05-03T15:37:25.616Z,92.00
2018-05-03T15:39:53.829Z,94.40
2018-05-03T15:42:21.299Z,94.30
2018-05-03T15:44:48.744Z,92.70
2018-05-03T15:47:16.176Z,93.00
2018-05-03T15:49:43.616Z,92.90
2018-05-03T15:52:11.839Z,92.60
2018-05-03T15:54:39.292Z,92.50
2018-05-03T15:57:06.725Z,92.20
2018-05-03T15:59:34.164Z,93.00
2018-05-03T16:02:01.597Z,92.50
2018-05-03T16:04:29.044Z,92.50
2018-05-03T16:06:57.240Z,93.90
2018-05-03T16:09:25.452Z,93.50
2018-05-03T16:11:52.895Z,93.40
2018-05-03T16:14:21.163Z,93.90
2018-05-03T16:16:48.532Z,93.80
2018-05-03T16:19:15.964Z,93.90
2018-05-03T16:21:44.160Z,93.90
2018-05-03T16:24:11.594Z,93.80
2018-05-03T16:26:39.800Z,93.70
2018-05-03T16:29:07.228Z,93.70
2018-05-03T16:31:35.072Z,92.70
2018-05-03T16:34:02.514Z,92.50
2018-05-03T16:36:30.444Z,93.00
2018-05-03T16:38:57.874Z,92.30
2018-05-03T16:41:26.079Z,92.00
2018-05-03T16:43:53.544Z,92.00
2018-05-03T16:46:20.993Z,92.90
2018-05-03T16:48:48.462Z,91.90
2018-05-03T16:51:15.932Z,91.60
2018-05-03T16:53:43.367Z,93.40
2018-05-03T16:56:10.810Z,92.20
2018-05-03T16:58:38.769Z,92.90
2018-05-03T17:01:06.945Z,92.30
2018-05-03T17:03:34.688Z,92.20
2018-05-03T17:06:02.905Z,92.70
2018-05-03T17:08:30.340Z,92.70
2018-05-03T17:10:57.822Z,92.60
2018-05-03T17:13:25.251Z,92.50
2018-05-03T17:15:52.688Z,92.90
2018-05-03T17:18:20.884Z,92.60
2018-05-03T17:20:48.376Z,92.60
2018-05-03T17:23:15.816Z,92.10
2018-05-03T17:25:43.261Z,92.50
2018-05-03T17:28:10.692Z,92.80
2018-05-03T17:30:38.900Z,92.60
2018-05-03T17:33:06.337Z,92.60
2018-05-03T17:35:33.769Z,92.70
2018-05-03T17:38:01.972Z,92.40
2018-05-03T17:40:29.457Z,92.30
2018-05-03T17:42:57.892Z,92.90
2018-05-03T17:45:26.209Z,93.20
2018-05-03T17:47:53.649Z,93.20
2018-05-03T17:50:21.080Z,93.20
2018-05-03T17:52:49.280Z,93.30
2018-05-03T17:55:16.708Z,93.30
2018-05-03T17:57:44.914Z,93.10
2018-05-03T18:00:12.348Z,93.10
2018-05-03T18:02:39.847Z,93.40
2018-05-03T18:05:07.297Z,93.20
2018-05-03T18:07:34.740Z,92.90
2018-05-03T18:10:02.214Z,93.10
2018-05-03T18:12:29.649Z,92.90
2018-05-03T18:14:57.075Z,92.70
2018-05-03T18:17:25.288Z,94.50
2018-05-03T18:19:53.389Z,94.40
2018-05-03T18:22:20.934Z,93.70
2018-05-03T18:24:48.379Z,93.50
2018-05-03T18:27:15.821Z,93.90
2018-05-03T18:29:43.253Z,94.00
2018-05-03T18:32:11.453Z,94.20
2018-05-03T18:34:38.880Z,94.10
2018-05-03T18:37:07.345Z,94.70
2018-05-03T18:39:34.769Z,94.70
2018-05-03T18:42:02.239Z,95.50
2018-05-03T18:44:29.677Z,95.00
2018-05-03T18:46:57.100Z,95.10
2018-05-03T18:49:24.605Z,95.50
2018-05-03T18:51:52.031Z,95.60
2018-05-03T18:54:19.469Z,96.00
2018-05-03T18:56:46.901Z,95.90
2018-05-03T18:59:15.116Z,96.00
2018-05-03T19:01:42.542Z,96.00
2018-05-03T19:04:10.759Z,95.90
2018-05-03T19:06:38.187Z,95.80
2018-05-03T19:09:06.424Z,96.30
2018-05-03T19:11:33.928Z,96.50
2018-05-03T19:14:01.377Z,96.70
2018-05-03T19:16:28.808Z,96.30
2018-05-03T19:18:57.008Z,96.40
2018-05-03T19:21:24.506Z,96.30
2018-05-03T19:23:52.006Z,96.60
2018-05-03T19:26:19.378Z,96.50
2018-05-03T19:28:47.347Z,96.80
2018-05-03T19:31:14.974Z,96.90
2018-05-03T19:33:42.428Z,97.20
2018-05-03T19:36:10.633Z,97.40
2018-05-03T19:38:38.504Z,97.40
2018-05-03T19:41:07.548Z,97.40
2018-05-03T19:43:35.158Z,97.50
2018-05-03T19:46:02.762Z,97.70
2018-05-03T19:48:30.284Z,97.90
2018-05-03T19:50:57.726Z,98.00
2018-05-03T19:53:25.161Z,98.20
2018-05-03T19:55:53.382Z,98.30
2018-05-03T19:58:20.887Z,98.30
2018-05-03T20:00:49.153Z,98.60
2018-05-03T20:03:16.650Z,98.60
2018-05-03T20:05:44.110Z,98.60
2018-05-03T20:08:11.597Z,98.80
2018-05-03T20:10:39.169Z,98.90
2018-05-03T20:13:06.595Z,99.00
2018-05-03T20:15:34.070Z,99.30
2018-05-03T20:18:01.581Z,99.20
2018-05-03T20:20:29.901Z,99.40
2018-05-03T20:22:57.334Z,99.40
2018-05-03T20:25:24.793Z,99.60
2018-05-03T20:27:52.256Z,99.70
2018-05-03T20:30:19.795Z,99.80
2018-05-03T20:32:47.329Z,99.90
2018-05-03T20:35:14.861Z,99.90
2018-05-03T20:37:42.299Z,99.90
2018-05-03T20:40:09.778Z,99.90
2018-05-03T20:42:37.231Z,99.90
2018-05-03T20:45:04.721Z,99.90
2018-05-03T20:47:32.987Z,99.90
2018-05-03T20:50:01.201Z,99.90
2018-05-03T20:52:28.634Z,99.90
2018-05-03T20:54:56.841Z,99.90
2018-05-03T20:57:24.302Z,99.90
2018-05-03T20:59:51.736Z,99.90
2018-05-03T21:02:19.169Z,99.90
2018-05-03T21:04:46.655Z,99.90
2018-05-03T21:07:14.084Z,99.90
2018-05-03T21:09:42.280Z,99.90
2018-05-03T21:12:09.725Z,99.90
2018-05-03T21:14:37.151Z,99.90
2018-05-03T21:17:04.658Z,99.90
2018-05-03T21:19:32.134Z,99.90
2018-05-03T21:21:59.575Z,99.90
2018-05-03T21:24:27.802Z,99.90
2018-05-03T21:26:55.241Z,99.90
2018-05-03T21:29:22.688Z,99.90
2018-05-03T21:31:50.150Z,99.90
2018-05-03T21:34:17.575Z,99.90
2018-05-03T21:36:45.017Z,99.90
2018-05-03T21:39:12.456Z,99.90
2018-05-03T21:41:40.704Z,99.90
2018-05-03T21:44:08.104Z,99.90
2018-05-03T21:46:35.539Z,99.90
2018-05-03T21:49:03.761Z,99.90
2018-05-03T21:51:31.194Z,99.90
2018-05-03T21:53:58.628Z,99.90
2018-05-03T21:56:26.824Z,99.90
2018-05-03T21:58:54.263Z,99.90
2018-05-03T22:01:23.257Z,99.90
2018-05-03T22:03:51.581Z,99.90
2018-05-03T22:06:19.005Z,99.90
2018-05-03T22:08:46.432Z,99.90
2018-05-03T22:11:14.644Z,99.90
2018-05-03T22:13:42.117Z,99.90
2018-05-03T22:16:09.698Z,99.90
2018-05-03T22:18:37.131Z,99.90
2018-05-03T22:21:04.657Z,99.90
2018-05-03T22:23:32.208Z,99.90
2018-05-03T22:26:00.437Z,99.90
2018-05-03T22:28:27.865Z,99.90
2018-05-03T22:30:55.292Z,99.90
2018-05-03T22:33:22.793Z,99.90
2018-05-03T22:35:50.224Z,99.90
2018-05-03T22:38:17.668Z,99.90
2018-05-03T22:40:45.942Z,99.90
2018-05-03T22:43:13.304Z,99.90
2018-05-03T22:45:40.740Z,99.90
2018-05-03T22:48:08.936Z,99.90
2018-05-03T22:50:36.373Z,99.90
2018-05-03T22:53:04.573Z,99.90
2018-05-03T22:55:32.004Z,99.90
2018-05-03T22:58:00.207Z,99.90
2018-05-03T23:00:27.636Z,99.90
2018-05-03T23:02:55.836Z,99.90
2018-05-03T23:05:23.268Z,99.90
2018-05-03T23:07:50.709Z,99.90
2018-05-03T23:10:18.908Z,99.90
2018-05-03T23:12:46.410Z,99.90
2018-05-03T23:15:14.540Z,99.90
2018-05-03T23:17:41.982Z,99.90
2018-05-03T23:20:10.172Z,99.90
2018-05-03T23:22:37.612Z,99.90
2018-05-03T23:25:05.045Z,99.90
2018-05-03T23:27:32.472Z,99.90
2018-05-03T23:29:59.921Z,99.90
2018-05-03T23:32:27.344Z,99.90
2018-05-03T23:34:54.784Z,99.90
2018-05-03T23:37:22.980Z,99.90
2018-05-03T23:39:50.412Z,99.90
2018-05-03T23:42:18.605Z,99.90
2018-05-03T23:44:46.040Z,99.90
2018-05-03T23:47:14.239Z,99.90
2018-05-03T23:49:41.673Z,99.90
2018-05-03T23:52:09.868Z,99.90
2018-05-03T23:54:37.304Z,99.90
2018-05-03T23:57:05.500Z,99.90
2018-05-03T23:59:32.940Z,99.90
